createdAt,value
2019-02-08T00:01:28.744Z,100615.25
2019-02-08T00:03:36.203Z,100611.31
2019-02-08T00:05:43.910Z,100614.27
2019-02-08T00:07:51.394Z,100615.11
2019-02-08T00:09:58.638Z,100613.36
2019-02-08T00:12:06.107Z,100607.30
2019-02-08T00:14:13.587Z,100615.89
2019-02-08T00:16:21.078Z,100614.99
2019-02-08T00:18:28.271Z,100620.63
2019-02-08T00:20:35.763Z,100615.84
2019-02-08T00:22:43.343Z,100624.94
2019-02-08T00:24:50.719Z,100627.13
2019-02-08T00:26:58.255Z,100637.53
2019-02-08T00:29:05.587Z,100635.37
2019-02-08T00:31:13.115Z,100631.48
2019-02-08T00:33:21.114Z,100637.08
2019-02-08T00:35:28.578Z,100639.67
2019-02-08T00:37:36.114Z,100643.57
2019-02-08T00:39:43.718Z,100641.41
2019-02-08T00:41:51.224Z,100640.07
2019-02-08T00:43:58.844Z,100644.81
2019-02-08T00:46:06.805Z,100646.06
2019-02-08T00:48:14.622Z,100649.11
2019-02-08T00:50:22.910Z,100644.72
2019-02-08T00:52:30.225Z,100644.71
2019-02-08T00:54:37.473Z,100639.06
2019-02-08T00:56:44.887Z,100650.30
2019-02-08T00:58:52.399Z,100637.76
2019-02-08T01:00:59.976Z,100642.95
2019-02-08T01:03:07.987Z,100648.15
2019-02-08T01:05:17.305Z,100642.91
2019-02-08T01:07:24.609Z,100648.95
2019-02-08T01:09:32.213Z,100644.20
2019-02-08T01:11:39.697Z,100645.89
2019-02-08T01:13:47.638Z,100648.89
2019-02-08T01:15:55.009Z,100652.34
2019-02-08T01:18:02.443Z,100651.44
2019-02-08T01:20:13.072Z,100651.89
2019-02-08T01:22:20.545Z,100651.43
2019-02-08T01:24:28.034Z,100650.57
2019-02-08T01:26:35.514Z,100649.22
2019-02-08T01:28:42.946Z,100647.07
2019-02-08T01:30:50.394Z,100648.77
2019-02-08T01:32:57.715Z,100646.96
2019-02-08T01:35:05.485Z,100649.44
2019-02-08T01:37:12.678Z,100647.28
2019-02-08T01:39:20.036Z,100645.94
2019-02-08T01:41:27.454Z,100649.38
2019-02-08T01:43:34.986Z,100647.66
2019-02-08T01:45:42.253Z,100649.77
2019-02-08T01:47:49.686Z,100651.00
2019-02-08T01:49:57.148Z,100641.89
2019-02-08T01:52:04.522Z,100646.64
2019-02-08T01:54:11.956Z,100639.23
2019-02-08T01:56:19.499Z,100641.88
2019-02-08T01:58:26.741Z,100640.98
2019-02-08T02:00:41.496Z,100643.59
2019-02-08T02:02:48.933Z,100641.44
2019-02-08T02:04:56.434Z,100640.52
2019-02-08T02:07:03.913Z,100643.52
2019-02-08T02:09:11.430Z,100647.41
2019-02-08T02:11:18.790Z,100648.26
2019-02-08T02:13:26.152Z,100646.51
2019-02-08T02:15:33.612Z,100646.13
2019-02-08T02:17:41.159Z,100641.77
2019-02-08T02:19:48.608Z,100651.27
2019-02-08T02:21:55.665Z,100649.56
2019-02-08T02:24:03.062Z,100650.00
2019-02-08T02:26:10.586Z,100654.32
2019-02-08T02:28:17.959Z,100656.50
2019-02-08T02:30:31.969Z,100659.52
2019-02-08T02:32:39.343Z,100659.97
2019-02-08T02:34:46.694Z,100660.43
2019-02-08T02:36:53.830Z,100661.31
2019-02-08T02:39:01.294Z,100663.87
2019-02-08T02:41:08.555Z,100668.23
2019-02-08T02:43:15.822Z,100669.99
2019-02-08T02:45:34.877Z,100672.59
2019-02-08T02:47:42.404Z,100670.83
2019-02-08T02:49:49.917Z,100668.28
2019-02-08T02:51:57.386Z,100673.47
2019-02-08T02:54:05.213Z,100672.59
2019-02-08T02:56:12.649Z,100676.42
2019-02-08T02:58:20.225Z,100678.55
2019-02-08T03:00:36.726Z,100673.67
2019-02-08T03:02:44.262Z,100668.84
2019-02-08T03:04:51.707Z,100673.14
2019-02-08T03:06:59.218Z,100671.37
2019-02-08T03:09:09.685Z,100677.77
2019-02-08T03:11:17.252Z,100678.08
2019-02-08T03:13:24.712Z,100677.22
2019-02-08T03:15:32.022Z,100689.77
2019-02-08T03:17:39.419Z,100691.55
2019-02-08T03:19:46.805Z,100689.80
2019-02-08T03:21:54.244Z,100685.93
2019-02-08T03:24:01.687Z,100688.49
2019-02-08T03:26:09.136Z,100694.60
2019-02-08T03:28:16.463Z,100698.05
2019-02-08T03:30:44.328Z,100703.25
2019-02-08T03:32:52.086Z,100700.65
2019-02-08T03:34:59.456Z,100699.82
2019-02-08T03:37:06.754Z,100706.38
2019-02-08T03:39:14.336Z,100709.00
2019-02-08T03:41:21.719Z,100713.34
2019-02-08T03:43:29.398Z,100715.05
2019-02-08T03:45:40.068Z,100713.33
2019-02-08T03:47:47.467Z,100711.19
2019-02-08T03:49:54.916Z,100701.69
2019-02-08T03:52:02.243Z,100696.04
2019-02-08T03:54:09.680Z,100701.65
2019-02-08T03:56:16.958Z,100702.99
2019-02-08T03:58:24.464Z,100696.88
2019-02-08T04:00:39.591Z,100705.09
2019-02-08T04:02:47.065Z,100700.34
2019-02-08T04:04:54.281Z,100702.95
2019-02-08T04:07:01.634Z,100707.75
2019-02-08T04:09:09.501Z,100706.91
2019-02-08T04:11:16.980Z,100712.05
2019-02-08T04:13:24.289Z,100718.98
2019-02-08T04:15:31.780Z,100727.21
2019-02-08T04:17:39.228Z,100716.39
2019-02-08T04:19:46.566Z,100722.52
2019-02-08T04:21:53.738Z,100725.13
2019-02-08T04:24:01.200Z,100719.91
2019-02-08T04:26:08.641Z,100722.52
2019-02-08T04:28:16.029Z,100719.84
2019-02-08T04:30:28.364Z,100723.28
2019-02-08T04:32:35.666Z,100728.94
2019-02-08T04:34:42.862Z,100730.19
2019-02-08T04:36:50.271Z,100732.79
2019-02-08T04:38:57.796Z,100734.54
2019-02-08T04:41:05.029Z,100729.29
2019-02-08T04:43:12.482Z,100730.20
2019-02-08T04:45:20.032Z,100731.05
2019-02-08T04:47:27.555Z,100738.39
2019-02-08T04:49:35.022Z,100740.15
2019-02-08T04:51:42.170Z,100740.99
2019-02-08T04:53:49.533Z,100744.05
2019-02-08T04:55:56.929Z,100739.67
2019-02-08T04:58:04.407Z,100732.72
2019-02-08T05:00:20.117Z,100746.19
2019-02-08T05:02:27.511Z,100747.83
2019-02-08T05:04:35.027Z,100749.58
2019-02-08T05:06:42.515Z,100744.77
2019-02-08T05:08:49.741Z,100743.06
2019-02-08T05:10:57.016Z,100744.75
2019-02-08T05:13:04.575Z,100746.91
2019-02-08T05:15:12.137Z,100750.81
2019-02-08T05:17:19.441Z,100747.34
2019-02-08T05:19:26.786Z,100750.80
2019-02-08T05:21:34.005Z,100758.63
2019-02-08T05:23:41.500Z,100761.63
2019-02-08T05:25:48.968Z,100758.61
2019-02-08T05:27:56.276Z,100749.91
2019-02-08T05:30:03.726Z,100762.97
2019-02-08T05:32:12.125Z,100765.59
2019-02-08T05:34:19.846Z,100754.40
2019-02-08T05:36:27.129Z,100766.03
2019-02-08T05:38:34.603Z,100762.98
2019-02-08T05:40:42.151Z,100766.47
2019-02-08T05:42:49.498Z,100763.95
2019-02-08T05:44:56.951Z,100759.13
2019-02-08T05:47:04.396Z,100755.63
2019-02-08T05:49:11.682Z,100764.29
2019-02-08T05:51:19.213Z,100756.53
2019-02-08T05:53:26.605Z,100761.28
2019-02-08T05:55:34.073Z,100763.88
2019-02-08T05:57:41.442Z,100762.98
2019-02-08T05:59:48.880Z,100765.56
2019-02-08T06:01:56.324Z,100773.34
2019-02-08T06:04:03.737Z,100782.45
2019-02-08T06:06:11.256Z,100780.75
2019-02-08T06:08:18.726Z,100782.05
2019-02-08T06:10:26.116Z,100784.63
2019-02-08T06:12:33.569Z,100782.88
2019-02-08T06:14:40.954Z,100801.11
2019-02-08T06:16:48.281Z,100803.24
2019-02-08T06:18:55.735Z,100803.65
2019-02-08T06:21:03.111Z,100810.55
2019-02-08T06:23:10.528Z,100805.78
2019-02-08T06:25:17.789Z,100808.32
2019-02-08T06:27:25.199Z,100810.48
2019-02-08T06:29:34.202Z,100818.76
2019-02-08T06:31:41.371Z,100822.20
2019-02-08T06:33:48.824Z,100825.25
2019-02-08T06:35:56.291Z,100828.26
2019-02-08T06:38:03.745Z,100830.00
2019-02-08T06:40:13.189Z,100834.75
2019-02-08T06:42:20.562Z,100832.98
2019-02-08T06:44:27.992Z,100842.52
2019-02-08T06:46:35.338Z,100841.20
2019-02-08T06:48:42.668Z,100842.94
2019-02-08T06:50:50.092Z,100850.31
2019-02-08T06:52:57.383Z,100853.37
2019-02-08T06:55:10.771Z,100863.34
2019-02-08T06:57:21.329Z,100853.77
2019-02-08T06:59:35.937Z,100864.19
2019-02-08T07:02:11.030Z,100863.31
2019-02-08T07:04:46.552Z,100865.92
2019-02-08T07:07:27.966Z,100855.46
2019-02-08T07:09:48.285Z,100871.94
2019-02-08T07:12:26.878Z,100872.84
2019-02-08T07:15:02.121Z,100873.23
2019-02-08T07:17:18.905Z,100885.41
2019-02-08T07:19:48.002Z,100879.30
2019-02-08T07:22:09.568Z,100877.60
2019-02-08T07:24:44.465Z,100878.89
2019-02-08T07:27:06.722Z,100876.68
2019-02-08T07:29:51.055Z,100881.89
2019-02-08T07:32:23.477Z,100881.44
2019-02-08T07:35:01.809Z,100900.12
2019-02-08T07:37:27.662Z,100900.98
2019-02-08T07:39:42.962Z,100901.82
2019-02-08T07:42:03.984Z,100900.97
2019-02-08T07:44:25.030Z,100897.05
2019-02-08T07:46:50.203Z,100906.18
2019-02-08T07:49:14.899Z,100907.08
2019-02-08T07:51:38.182Z,100904.48
2019-02-08T07:54:12.889Z,100910.14
2019-02-08T07:56:43.566Z,100913.59
2019-02-08T07:59:03.515Z,100918.36
2019-02-08T08:01:44.668Z,100925.72
2019-02-08T08:04:01.443Z,100923.56
2019-02-08T08:06:36.983Z,100919.60
2019-02-08T08:09:02.116Z,100923.03
2019-02-08T08:11:34.368Z,100920.75
2019-02-08T08:14:01.366Z,100919.79
2019-02-08T08:16:26.320Z,100916.57
2019-02-08T08:18:50.878Z,100918.14
2019-02-08T08:21:16.559Z,100931.09
2019-02-08T08:23:48.839Z,100932.70
2019-02-08T08:26:20.012Z,100930.34
2019-02-08T08:28:46.042Z,100931.64
2019-02-08T08:31:01.472Z,100928.41
2019-02-08T08:33:26.490Z,100931.75
2019-02-08T08:36:18.269Z,100927.98
2019-02-08T08:39:23.656Z,100932.41
2019-02-08T08:42:34.503Z,100936.06
2019-02-08T08:45:59.789Z,100931.39
2019-02-08T08:49:21.351Z,100933.23
2019-02-08T08:52:38.588Z,100934.60
2019-02-08T08:55:32.116Z,100936.36
2019-02-08T08:58:36.012Z,100942.83
2019-02-08T09:01:59.480Z,100939.73
2019-02-08T09:05:00.500Z,100935.30
2019-02-08T09:08:22.310Z,100932.98
2019-02-08T09:11:24.534Z,100934.09
2019-02-08T09:14:21.750Z,100940.48
2019-02-08T09:17:47.717Z,100936.05
2019-02-08T09:20:53.533Z,100935.57
2019-02-08T09:23:43.306Z,100939.34
2019-02-08T09:27:02.064Z,100938.13
2019-02-08T09:30:24.947Z,100941.79
2019-02-08T09:33:33.651Z,100942.44
2019-02-08T09:36:32.135Z,100945.06
2019-02-08T09:39:46.113Z,100938.53
2019-02-08T09:42:40.575Z,100946.17
2019-02-08T09:45:53.661Z,100944.84
2019-02-08T09:48:59.693Z,100946.13
2019-02-08T09:52:02.966Z,100931.07
2019-02-08T09:55:13.166Z,100932.61
2019-02-08T09:58:21.139Z,100946.15
2019-02-08T10:01:10.773Z,100951.48
2019-02-08T10:04:04.156Z,100949.76
2019-02-08T10:07:11.070Z,100946.58
2019-02-08T10:10:33.054Z,100943.95
2019-02-08T10:14:11.090Z,100937.80
2019-02-08T10:17:26.891Z,100946.86
2019-02-08T10:20:37.440Z,100945.74
2019-02-08T10:23:51.908Z,100954.33
2019-02-08T10:26:59.789Z,100941.27
2019-02-08T10:30:15.881Z,100948.25
2019-02-08T10:33:09.975Z,100936.38
2019-02-08T10:36:24.979Z,100942.89
2019-02-08T10:39:48.256Z,100949.83
2019-02-08T10:42:59.481Z,100949.70
2019-02-08T10:46:15.356Z,100941.59
2019-02-08T10:49:13.421Z,100937.30
2019-02-08T10:52:43.772Z,100935.88
2019-02-08T10:56:14.921Z,100934.91
2019-02-08T10:59:38.954Z,100937.27
2019-02-08T11:03:00.257Z,100934.66
2019-02-08T11:06:07.994Z,100939.55
2019-02-08T11:09:35.449Z,100934.97
2019-02-08T11:12:52.615Z,100940.74
2019-02-08T11:16:13.012Z,100932.73
2019-02-08T11:19:22.541Z,100942.82
2019-02-08T11:21:30.004Z,100944.38
2019-02-08T11:23:37.579Z,100939.55
2019-02-08T11:25:45.286Z,100941.27
2019-02-08T11:27:53.029Z,100939.80
2019-02-08T11:30:01.024Z,100942.15
2019-02-08T11:32:08.488Z,100945.98
2019-02-08T11:34:15.964Z,100939.31
2019-02-08T11:36:23.394Z,100946.14
2019-02-08T11:38:30.911Z,100946.73
2019-02-08T11:40:38.366Z,100944.99
2019-02-08T11:42:45.950Z,100939.33
2019-02-08T11:44:53.545Z,100930.91
2019-02-08T11:47:00.993Z,100939.69
2019-02-08T11:49:08.564Z,100942.73
2019-02-08T11:51:16.084Z,100934.30
2019-02-08T11:53:23.604Z,100929.19
2019-02-08T11:55:31.140Z,100929.70
2019-02-08T11:57:38.657Z,100935.98
2019-02-08T11:59:46.046Z,100934.38
2019-02-08T12:01:53.436Z,100926.38
2019-02-08T12:04:00.983Z,100928.13
2019-02-08T12:06:08.480Z,100934.74
2019-02-08T12:08:15.954Z,100928.28
2019-02-08T12:10:23.481Z,100926.84
2019-02-08T12:12:31.041Z,100928.13
2019-02-08T12:14:38.618Z,100929.49
2019-02-08T12:16:46.147Z,100927.34
2019-02-08T12:18:53.667Z,100919.66
2019-02-08T12:21:01.120Z,100925.91
2019-02-08T12:23:08.663Z,100926.12
2019-02-08T12:25:16.292Z,100925.77
2019-02-08T12:27:23.707Z,100923.43
2019-02-08T12:29:31.078Z,100926.02
2019-02-08T12:31:38.389Z,100929.34
2019-02-08T12:33:45.950Z,100927.09
2019-02-08T12:35:53.444Z,100923.48
2019-02-08T12:38:00.950Z,100918.92
2019-02-08T12:40:09.443Z,100912.02
2019-02-08T12:42:16.969Z,100912.23
2019-02-08T12:44:24.387Z,100913.19
2019-02-08T12:46:31.953Z,100912.97
2019-02-08T12:48:39.435Z,100912.97
2019-02-08T12:50:46.826Z,100906.45
2019-02-08T12:52:54.279Z,100913.68
2019-02-08T12:55:01.778Z,100912.90
2019-02-08T12:57:09.137Z,100906.45
2019-02-08T12:59:16.321Z,100909.75
2019-02-08T13:01:23.669Z,100911.34
2019-02-08T13:03:31.117Z,100907.05
2019-02-08T13:05:38.559Z,100912.55
2019-02-08T13:07:46.031Z,100913.19
2019-02-08T13:09:53.482Z,100912.01
2019-02-08T13:12:00.983Z,100912.05
2019-02-08T13:14:08.695Z,100911.52
2019-02-08T13:16:16.112Z,100910.48
2019-02-08T13:18:23.366Z,100913.36
2019-02-08T13:20:30.908Z,100909.39
2019-02-08T13:22:38.233Z,100909.66
2019-02-08T13:24:45.622Z,100908.03
2019-02-08T13:26:53.235Z,100908.75
2019-02-08T13:29:00.612Z,100917.06
2019-02-08T13:31:08.123Z,100915.80
2019-02-08T13:33:16.526Z,100918.25
2019-02-08T13:35:24.280Z,100915.63
2019-02-08T13:37:31.595Z,100921.46
2019-02-08T13:39:39.231Z,100922.67
2019-02-08T13:41:46.652Z,100924.73
2019-02-08T13:43:54.155Z,100920.80
2019-02-08T13:46:01.660Z,100916.44
2019-02-08T13:48:09.153Z,100913.85
2019-02-08T13:50:22.473Z,100905.95
2019-02-08T13:52:29.932Z,100915.63
2019-02-08T13:54:37.212Z,100920.08
2019-02-08T13:56:44.807Z,100924.97
2019-02-08T13:58:52.299Z,100916.48
2019-02-08T14:00:59.955Z,100910.00
2019-02-08T14:03:08.484Z,100910.11
2019-02-08T14:05:15.965Z,100912.79
2019-02-08T14:07:23.470Z,100904.38
2019-02-08T14:09:30.874Z,100905.69
2019-02-08T14:11:38.491Z,100906.21
2019-02-08T14:13:45.973Z,100907.09
2019-02-08T14:15:53.460Z,100920.23
2019-02-08T14:18:00.941Z,100921.17
2019-02-08T14:20:10.736Z,100921.27
2019-02-08T14:22:18.126Z,100923.95
2019-02-08T14:24:25.675Z,100919.33
2019-02-08T14:26:32.917Z,100918.02
2019-02-08T14:28:40.568Z,100916.38
2019-02-08T14:30:47.973Z,100921.63
2019-02-08T14:32:55.965Z,100918.27
2019-02-08T14:35:03.762Z,100918.77
2019-02-08T14:37:10.996Z,100913.52
2019-02-08T14:39:18.443Z,100912.80
2019-02-08T14:41:25.951Z,100916.75
2019-02-08T14:43:33.516Z,100915.97
2019-02-08T14:45:41.088Z,100912.52
2019-02-08T14:47:48.647Z,100910.82
2019-02-08T14:49:56.098Z,100916.20
2019-02-08T14:52:03.572Z,100912.49
2019-02-08T14:54:10.989Z,100908.50
2019-02-08T14:56:18.237Z,100907.68
2019-02-08T14:58:25.690Z,100905.30
2019-02-08T15:00:33.208Z,100902.77
2019-02-08T15:02:40.555Z,100912.45
2019-02-08T15:04:47.966Z,100915.15
2019-02-08T15:06:55.435Z,100918.77
2019-02-08T15:09:02.913Z,100909.20
2019-02-08T15:11:10.282Z,100911.99
2019-02-08T15:13:17.825Z,100910.71
2019-02-08T15:15:25.345Z,100908.69
2019-02-08T15:17:32.868Z,100911.92
2019-02-08T15:19:40.199Z,100916.92
2019-02-08T15:21:47.713Z,100915.34
2019-02-08T15:23:56.543Z,100915.48
2019-02-08T15:26:03.860Z,100914.75
2019-02-08T15:28:11.369Z,100909.98
2019-02-08T15:30:22.315Z,100913.91
2019-02-08T15:32:29.748Z,100926.25
2019-02-08T15:34:37.337Z,100917.60
2019-02-08T15:36:49.387Z,100921.59
2019-02-08T15:38:54.022Z,100917.45
2019-02-08T15:41:01.514Z,100919.78
2019-02-08T15:43:09.473Z,100913.34
2019-02-08T15:45:19.239Z,100918.58
2019-02-08T15:47:26.860Z,100916.62
2019-02-08T15:49:34.416Z,100912.56
2019-02-08T15:51:41.979Z,100915.82
2019-02-08T15:53:49.491Z,100914.91
2019-02-08T15:56:01.944Z,100914.27
2019-02-08T15:58:09.727Z,100913.51
2019-02-08T16:00:21.111Z,100917.97
2019-02-08T16:02:28.633Z,100918.82
2019-02-08T16:04:36.039Z,100922.03
2019-02-08T16:06:43.612Z,100928.20
2019-02-08T16:08:51.294Z,100924.22
2019-02-08T16:10:58.724Z,100927.34
2019-02-08T16:13:06.158Z,100926.58
2019-02-08T16:15:21.042Z,100924.44
2019-02-08T16:17:28.461Z,100919.67
2019-02-08T16:19:36.007Z,100922.02
2019-02-08T16:21:43.582Z,100925.53
2019-02-08T16:23:50.976Z,100929.03
2019-02-08T16:25:58.348Z,100921.83
2019-02-08T16:28:05.850Z,100919.67
2019-02-08T16:30:19.411Z,100920.51
2019-02-08T16:32:26.864Z,100909.30
2019-02-08T16:34:34.406Z,100917.06
2019-02-08T16:36:41.975Z,100909.77
2019-02-08T16:38:49.424Z,100915.41
2019-02-08T16:40:57.073Z,100915.95
2019-02-08T16:43:05.929Z,100921.61
2019-02-08T16:45:35.377Z,100912.13
2019-02-08T16:47:42.820Z,100908.36
2019-02-08T16:49:50.348Z,100914.41
2019-02-08T16:51:57.774Z,100910.97
2019-02-08T16:54:05.516Z,100916.72
2019-02-08T16:56:12.971Z,100917.56
2019-02-08T16:58:20.647Z,100909.46
2019-02-08T17:00:30.868Z,100901.55
2019-02-08T17:02:38.444Z,100904.30
2019-02-08T17:04:46.084Z,100906.45
2019-02-08T17:06:53.459Z,100901.25
2019-02-08T17:09:00.839Z,100903.56
2019-02-08T17:11:08.601Z,100903.00
2019-02-08T17:13:15.879Z,100910.91
2019-02-08T17:15:25.037Z,100906.56
2019-02-08T17:17:32.491Z,100901.42
2019-02-08T17:19:40.019Z,100907.56
2019-02-08T17:21:48.471Z,100911.08
2019-02-08T17:23:56.214Z,100902.42
2019-02-08T17:26:04.157Z,100903.80
2019-02-08T17:28:12.740Z,100902.04
2019-02-08T17:30:20.332Z,100905.46
2019-02-08T17:32:28.501Z,100899.94
2019-02-08T17:34:36.911Z,100895.17
2019-02-08T17:36:45.120Z,100896.97
2019-02-08T17:38:53.403Z,100899.10
2019-02-08T17:41:01.872Z,100898.25
2019-02-08T17:43:09.635Z,100893.95
2019-02-08T17:45:20.407Z,100893.06
2019-02-08T17:47:28.294Z,100903.56
2019-02-08T17:49:36.085Z,100897.48
2019-02-08T17:51:43.883Z,100904.91
2019-02-08T17:53:51.411Z,100907.09
2019-02-08T17:55:58.879Z,100897.95
2019-02-08T17:58:06.412Z,100907.06
2019-02-08T18:00:31.190Z,100911.05
2019-02-08T18:02:38.919Z,100910.19
2019-02-08T18:04:46.491Z,100914.20
2019-02-08T18:06:54.342Z,100920.32
2019-02-08T18:09:02.017Z,100916.02
2019-02-08T18:11:09.426Z,100912.97
2019-02-08T18:13:18.646Z,100920.83
2019-02-08T18:15:26.291Z,100920.88
2019-02-08T18:17:33.948Z,100925.14
2019-02-08T18:19:41.626Z,100918.30
2019-02-08T18:21:49.167Z,100921.27
2019-02-08T18:23:56.873Z,100922.25
2019-02-08T18:26:04.310Z,100922.14
2019-02-08T18:28:11.758Z,100924.01
2019-02-08T18:30:20.540Z,100920.56
2019-02-08T18:32:28.118Z,100924.03
2019-02-08T18:34:35.801Z,100923.28
2019-02-08T18:36:44.484Z,100924.59
2019-02-08T18:38:52.083Z,100916.79
2019-02-08T18:40:59.570Z,100917.34
2019-02-08T18:43:07.084Z,100919.95
2019-02-08T18:45:21.391Z,100921.27
2019-02-08T18:47:28.851Z,100922.56
2019-02-08T18:49:36.522Z,100916.95
2019-02-08T18:51:44.230Z,100912.98
2019-02-08T18:53:51.760Z,100909.03
2019-02-08T18:55:59.333Z,100912.59
2019-02-08T18:58:07.171Z,100906.09
2019-02-08T19:00:19.830Z,100906.09
2019-02-08T19:02:27.559Z,100906.98
2019-02-08T19:04:35.266Z,100904.05
2019-02-08T19:06:42.891Z,100903.15
2019-02-08T19:08:50.867Z,100908.86
2019-02-08T19:10:58.606Z,100913.22
2019-02-08T19:13:06.152Z,100910.61
2019-02-08T19:15:15.505Z,100902.88
2019-02-08T19:17:23.005Z,100905.81
2019-02-08T19:19:30.819Z,100900.72
2019-02-08T19:21:38.300Z,100900.66
2019-02-08T19:23:45.956Z,100897.77
2019-02-08T19:25:53.425Z,100900.42
2019-02-08T19:28:01.208Z,100900.46
2019-02-08T19:30:13.527Z,100904.86
2019-02-08T19:32:21.045Z,100902.81
2019-02-08T19:34:28.547Z,100909.36
2019-02-08T19:36:36.137Z,100902.94
2019-02-08T19:38:43.607Z,100903.03
2019-02-08T19:40:51.254Z,100901.69
2019-02-08T19:42:59.027Z,100900.46
2019-02-08T19:45:09.366Z,100894.00
2019-02-08T19:47:17.130Z,100897.50
2019-02-08T19:49:24.770Z,100902.28
2019-02-08T19:51:32.605Z,100894.94
2019-02-08T19:53:40.343Z,100897.57
2019-02-08T19:55:48.050Z,100899.34
2019-02-08T19:57:55.565Z,100897.19
2019-02-08T20:00:03.241Z,100899.89
2019-02-08T20:02:10.902Z,100900.77
2019-02-08T20:04:18.489Z,100890.83
2019-02-08T20:06:25.796Z,100895.13
2019-02-08T20:08:34.584Z,100889.97
2019-02-08T20:10:44.277Z,100888.28
2019-02-08T20:12:51.741Z,100890.86
2019-02-08T20:14:59.324Z,100887.42
2019-02-08T20:17:06.967Z,100879.16
2019-02-08T20:19:14.429Z,100880.52
2019-02-08T20:21:22.538Z,100883.56
2019-02-08T20:23:30.091Z,100885.30
2019-02-08T20:25:38.308Z,100879.69
2019-02-08T20:27:45.936Z,100870.60
2019-02-08T20:29:53.637Z,100877.56
2019-02-08T20:32:01.196Z,100883.17
2019-02-08T20:34:08.605Z,100876.27
2019-02-08T20:36:15.937Z,100884.08
2019-02-08T20:38:23.649Z,100883.22
2019-02-08T20:40:34.156Z,100880.62
2019-02-08T20:42:41.729Z,100882.34
2019-02-08T20:44:49.487Z,100884.95
2019-02-08T20:46:57.084Z,100886.67
2019-02-08T20:49:04.946Z,100878.89
2019-02-08T20:51:13.910Z,100876.28
2019-02-08T20:53:21.682Z,100876.27
2019-02-08T20:55:29.726Z,100868.86
2019-02-08T20:57:37.084Z,100873.17
2019-02-08T20:59:44.779Z,100864.50
2019-02-08T21:01:52.332Z,100859.77
2019-02-08T21:03:59.913Z,100864.05
2019-02-08T21:06:07.969Z,100875.27
2019-02-08T21:08:16.290Z,100875.27
2019-02-08T21:10:24.012Z,100880.02
2019-02-08T21:12:31.791Z,100871.37
2019-02-08T21:14:40.308Z,100868.36
2019-02-08T21:16:48.306Z,100864.44
2019-02-08T21:18:56.521Z,100865.30
2019-02-08T21:21:03.939Z,100864.00
2019-02-08T21:23:13.331Z,100864.44
2019-02-08T21:25:24.192Z,100856.27
2019-02-08T21:27:32.529Z,100859.36
2019-02-08T21:29:40.326Z,100855.88
2019-02-08T21:31:47.799Z,100861.48
2019-02-08T21:33:55.280Z,100850.22
2019-02-08T21:36:02.808Z,100852.75
2019-02-08T21:38:11.005Z,100852.72
2019-02-08T21:40:20.283Z,100848.44
2019-02-08T21:42:27.776Z,100851.83
2019-02-08T21:44:35.511Z,100849.64
2019-02-08T21:46:43.220Z,100847.11
2019-02-08T21:48:50.743Z,100845.38
2019-02-08T21:50:58.439Z,100844.92
2019-02-08T21:53:06.158Z,100837.13
2019-02-08T21:55:14.960Z,100845.81
2019-02-08T21:57:23.530Z,100843.66
2019-02-08T21:59:30.949Z,100845.84
2019-02-08T22:01:38.598Z,100838.09
2019-02-08T22:03:46.146Z,100838.53
2019-02-08T22:06:06.031Z,100845.81
2019-02-08T22:08:13.498Z,100837.16
2019-02-08T22:10:21.037Z,100825.06
2019-02-08T22:12:28.468Z,100834.57
2019-02-08T22:14:36.107Z,100830.26
2019-02-08T22:16:43.563Z,100826.78
2019-02-08T22:18:51.250Z,100813.34
2019-02-08T22:20:59.842Z,100825.89
2019-02-08T22:23:10.747Z,100824.14
2019-02-08T22:25:19.234Z,100822.53
2019-02-08T22:27:26.709Z,100826.46
2019-02-08T22:29:34.218Z,100835.58
2019-02-08T22:31:41.729Z,100836.41
2019-02-08T22:33:49.180Z,100833.89
2019-02-08T22:35:56.791Z,100833.03
2019-02-08T22:38:04.141Z,100831.27
2019-02-08T22:40:15.013Z,100836.08
2019-02-08T22:42:22.435Z,100834.77
2019-02-08T22:45:08.348Z,100830.42
2019-02-08T22:47:07.511Z,100830.47
2019-02-08T22:49:14.943Z,100827.06
2019-02-08T22:51:22.444Z,100838.32
2019-02-08T22:53:29.886Z,100825.39
2019-02-08T22:55:37.419Z,100827.56
2019-02-08T22:57:44.889Z,100819.78
2019-02-08T22:59:52.315Z,100815.49
2019-02-08T23:01:59.846Z,100817.22
2019-02-08T23:04:08.589Z,100820.29
2019-02-08T23:06:16.182Z,100816.37
2019-02-08T23:08:23.606Z,100809.89
2019-02-08T23:10:30.975Z,100812.95
2019-02-08T23:12:38.584Z,100806.48
2019-02-08T23:14:46.001Z,100802.16
2019-02-08T23:16:53.415Z,100795.25
2019-02-08T23:19:01.127Z,100792.22
2019-02-08T23:21:08.973Z,100793.08
2019-02-08T23:23:16.535Z,100790.88
2019-02-08T23:25:24.024Z,100785.69
2019-02-08T23:27:31.419Z,100781.38
2019-02-08T23:29:38.722Z,100778.78
2019-02-08T23:31:46.282Z,100777.46
2019-02-08T23:33:53.823Z,100771.38
2019-02-08T23:36:01.285Z,100775.65
2019-02-08T23:38:09.321Z,100773.56
2019-02-08T23:40:16.984Z,100773.50
2019-02-08T23:42:24.300Z,100777.78
2019-02-08T23:44:31.862Z,100771.76
2019-02-08T23:46:39.359Z,100762.16
2019-02-08T23:48:46.885Z,100763.04
2019-02-08T23:50:54.449Z,100766.52
2019-02-08T23:53:01.787Z,100760.00
2019-02-08T23:55:09.335Z,100754.78
2019-02-08T23:57:16.867Z,100756.08
2019-02-08T23:59:24.401Z,100755.25
